Time;durP1;ratioP1;P1;durP2;ratioP2;P2;SDS_P1;SDS_P2;PMS_P1;PMS_P2;Temp;Humidity;BMP_temperature;BMP_pressure;BME280_temperature;BME280_humidity;BME280_pressure;Samples;Min_cycle;Max_cycle;Signal;HPM_P1;HPM_P2
2021/12/13 00:02:02;;;;;;;9.48;1.45;;;20.80;99.90;;;;;;4989924;28;20058;-65
2021/12/13 00:04:38;;;;;;;13.45;1.95;;;20.90;99.90;;;;;;4991788;28;20379;-65
2021/12/13 00:07:25;;;;;;;6.68;1.20;;;20.90;99.90;;;;;;4993010;28;20383;-65
2021/12/13 00:10:03;;;;;;;4.18;1.48;;;20.70;99.90;;;;;;4991910;28;20097;-64
2021/12/13 00:12:41;;;;;;;7.10;1.85;;;20.60;99.90;;;;;;4992136;28;20495;-65
2021/12/13 00:15:27;;;;;;;11.95;1.45;;;20.80;99.90;;;;;;4992000;28;20125;-65
2021/12/13 00:17:56;;;;;;;8.25;1.75;;;20.70;99.90;;;;;;4992452;28;20034;-65
2021/12/13 00:20:36;;;;;;;6.57;1.50;;;20.50;99.90;;;;;;4992943;28;20034;-65
2021/12/13 00:23:14;;;;;;;8.20;1.73;;;21.00;99.90;;;;;;4991590;28;20061;-65
2021/12/13 00:25:46;;;;;;;5.20;1.40;;;21.20;99.90;;;;;;4990712;28;20037;-65
2021/12/13 00:28:17;;;;;;;6.68;2.03;;;21.30;99.90;;;;;;4989746;28;20072;-64
2021/12/13 00:31:12;;;;;;;5.22;1.40;;;21.40;99.90;;;;;;4991492;28;20037;-65
2021/12/13 00:33:52;;;;;;;6.63;1.33;;;21.40;99.90;;;;;;4989789;28;20049;-65
2021/12/13 00:36:38;;;;;;;5.13;1.23;;;21.50;99.90;;;;;;4991905;28;20531;-64
2021/12/13 00:39:18;;;;;;;6.65;1.80;;;21.70;99.90;;;;;;4992040;28;20034;-65
2021/12/13 00:41:48;;;;;;;6.68;1.48;;;21.80;99.90;;;;;;4987702;28;20026;-64
2021/12/13 00:44:34;;;;;;;6.20;1.60;;;22.20;99.90;;;;;;4992903;28;20050;-65
2021/12/13 00:47:07;;;;;;;;;;;22.40;99.90;;;;;;4991504;28;20030;-65
2021/12/13 00:49:38;;;;;;;5.72;1.08;;;22.70;99.90;;;;;;4990613;28;19968;-64
2021/12/13 00:52:14;;;;;;;4.80;1.35;;;22.70;99.90;;;;;;4990855;28;20026;-64
2021/12/13 00:54:41;;;;;;;;;;;22.90;99.90;;;;;;4991271;28;20089;-64
2021/12/13 00:57:27;;;;;;;4.72;1.67;;;23.00;99.90;;;;;;4988934;28;19910;-64
2021/12/13 01:00:03;;;;;;;5.40;1.48;;;23.00;99.90;;;;;;4988688;28;20045;-64
2021/12/13 01:02:51;;;;;;;5.50;1.38;;;22.70;99.90;;;;;;4986813;28;20046;-64
2021/12/13 01:05:32;;;;;;;5.47;1.38;;;22.20;99.90;;;;;;4991430;28;20023;-65
2021/12/13 01:08:00;;;;;;;3.70;1.23;;;21.90;99.90;;;;;;4992425;28;20034;-65
2021/12/13 01:10:40;;;;;;;7.55;1.95;;;22.40;99.90;;;;;;4990334;28;20022;-64
2021/12/13 01:13:20;;;;;;;5.47;1.77;;;22.50;99.90;;;;;;4990858;28;20105;-64
2021/12/13 01:16:00;;;;;;;3.28;1.23;;;22.80;99.90;;;;;;4990709;28;20029;-64
2021/12/13 01:19:24;;;;;;;4.80;1.70;;;23.00;99.90;;;;;;4990882;28;20395;-64
2021/12/13 01:22:20;;;;;;;10.38;1.88;;;23.20;99.90;;;;;;4987628;28;20065;-64
2021/12/13 01:27:39;;;;;;;4.60;1.25;;;22.60;99.90;;;;;;4992709;28;20383;-64
2021/12/13 01:30:15;;;;;;;4.22;1.40;;;23.00;99.90;;;;;;4987571;28;20035;-64
2021/12/13 01:32:47;;;;;;;7.78;1.52;;;23.10;99.90;;;;;;4979205;28;20022;-64
2021/12/13 01:35:20;;;;;;;4.43;1.30;;;23.20;99.90;;;;;;4993872;28;20018;-64
2021/12/13 01:37:52;;;;;;;5.80;1.85;;;23.40;99.90;;;;;;4991961;28;20025;-64
2021/12/13 01:40:27;;;;;;;4.53;1.20;;;23.70;99.90;;;;;;4995057;28;20041;-63
2021/12/13 01:43:20;;;;;;;6.28;2.00;;;23.80;99.90;;;;;;4994081;28;20022;-64
2021/12/13 01:45:50;;;;;;;5.53;1.25;;;23.90;99.90;;;;;;4995599;28;20149;-64
2021/12/13 01:48:27;;;;;;;5.38;1.48;;;24.00;99.00;;;;;;4995314;28;20550;-64
2021/12/13 01:51:05;;;;;;;6.30;1.73;;;23.60;99.00;;;;;;4993493;28;20472;-65
2021/12/13 01:53:47;;;;;;;8.82;1.55;;;23.60;98.40;;;;;;4991012;28;20364;-64
2021/12/13 01:56:38;;;;;;;4.07;1.10;;;23.80;99.90;;;;;;4994065;28;20391;-64
2021/12/13 01:59:28;;;;;;;4.18;1.58;;;24.10;99.90;;;;;;4995204;28;20041;-64
2021/12/13 02:01:59;;;;;;;2.90;0.98;;;24.40;99.80;;;;;;4985790;28;20510;-64
2021/12/13 02:04:27;;;;;;;4.45;1.02;;;24.70;99.90;;;;;;4992682;28;20023;-63
2021/12/13 02:07:01;;;;;;;3.88;1.20;;;25.00;99.90;;;;;;4995468;28;20030;-64
2021/12/13 02:09:39;;;;;;;3.40;1.10;;;25.40;99.90;;;;;;4988172;28;20030;-64
2021/12/13 02:12:13;;;;;;;10.18;2.00;;;25.30;99.90;;;;;;4987036;28;20063;-64
2021/12/13 02:17:46;;;;;;;6.28;1.40;;;25.10;98.10;;;;;;4985353;28;20037;-65
2021/12/13 02:20:14;;;;;;;6.30;1.65;;;24.80;97.60;;;;;;4993226;28;20054;-64
2021/12/13 02:22:59;;;;;;;5.75;2.08;;;24.50;97.60;;;;;;4994570;28;20050;-65
2021/12/13 02:25:29;;;;;;;4.97;1.17;;;24.40;98.40;;;;;;4993847;28;20491;-65
2021/12/13 02:28:04;;;;;;;8.10;1.60;;;24.20;97.60;;;;;;4993209;28;20510;-65
2021/12/13 02:30:50;;;;;;;4.72;1.67;;;24.30;98.60;;;;;;4995547;28;20023;-64
2021/12/13 02:33:24;;;;;;;7.93;1.85;;;24.20;97.10;;;;;;4985359;28;20160;-65
2021/12/13 02:36:02;;;;;;;4.65;1.38;;;24.30;97.30;;;;;;4986853;28;20022;-65
2021/12/13 02:38:31;;;;;;;6.72;1.65;;;24.50;97.70;;;;;;4994839;28;20037;-64
2021/12/13 02:41:03;;;;;;;5.32;1.40;;;24.50;95.70;;;;;;4995818;28;20037;-65
2021/12/13 02:43:36;;;;;;;4.38;1.40;;;24.40;98.30;;;;;;4994894;28;20081;-65
2021/12/13 02:46:04;;;;;;;9.88;1.35;;;24.90;98.40;;;;;;4994965;28;20026;-65
2021/12/13 02:49:04;;;;;;;3.08;0.90;;;25.00;97.50;;;;;;4995008;28;20033;-64
2021/12/13 02:51:58;;;;;;;3.97;1.17;;;25.30;96.60;;;;;;4993632;28;20492;-65
2021/12/13 02:54:30;;;;;;;11.43;2.38;;;25.30;95.60;;;;;;4994940;28;20380;-65
2021/12/13 02:57:02;;;;;;;5.47;1.70;;;25.00;97.80;;;;;;4995755;28;20030;-65
2021/12/13 02:59:32;;;;;;;6.70;1.80;;;24.60;98.40;;;;;;4995657;28;20037;-66
2021/12/13 03:02:07;;;;;;;9.45;1.88;;;24.50;99.40;;;;;;4993981;28;20097;-66
2021/12/13 03:04:36;;;;;;;8.70;1.80;;;24.40;99.50;;;;;;4994304;28;20495;-65
2021/12/13 03:07:09;;;;;;;5.97;2.30;;;24.30;99.60;;;;;;4990226;28;20036;-66
2021/12/13 03:09:39;;;;;;;7.30;1.83;;;24.70;99.90;;;;;;4995071;28;20502;-65
2021/12/13 03:12:10;;;;;;;3.28;1.38;;;24.90;99.50;;;;;;4992618;28;20027;-65
2021/12/13 03:14:44;;;;;;;9.27;2.20;;;25.00;98.70;;;;;;4991781;28;20088;-66
2021/12/13 03:17:31;;;;;;;9.00;1.10;;;24.80;99.40;;;;;;4993298;28;20025;-65
2021/12/13 03:20:31;;;;;;;5.72;1.42;;;24.40;99.40;;;;;;4994179;28;20034;-66
2021/12/13 03:23:24;;;;;;;4.22;1.75;;;24.30;99.90;;;;;;4993941;28;20077;-66
2021/12/13 03:26:04;;;;;;;5.63;1.90;;;24.30;99.90;;;;;;4993205;28;20022;-65
2021/12/13 03:29:00;;;;;;;11.85;2.33;;;24.00;99.90;;;;;;4993147;28;20027;-65
2021/12/13 03:31:35;;;;;;;7.15;2.15;;;23.90;99.90;;;;;;4989851;28;20030;-65
2021/12/13 03:34:22;;;;;;;7.97;2.08;;;24.00;99.90;;;;;;4994647;28;20534;-65
2021/12/13 03:36:58;;;;;;;10.18;2.33;;;24.30;99.90;;;;;;4992777;28;20037;-65
2021/12/13 03:39:41;;;;;;;11.50;1.90;;;24.10;99.90;;;;;;4991177;28;20062;-64
2021/12/13 03:42:20;;;;;;;11.98;2.28;;;24.20;99.90;;;;;;4992480;28;20018;-66
2021/12/13 03:44:51;;;;;;;10.25;2.10;;;24.10;99.90;;;;;;4985219;28;20084;-65
2021/12/13 03:47:34;;;;;;;6.55;1.48;;;24.10;99.90;;;;;;4985757;28;20149;-65
2021/12/13 03:50:27;;;;;;;10.20;2.05;;;24.30;99.90;;;;;;4993329;28;20077;-65
2021/12/13 03:53:03;;;;;;;10.80;2.05;;;24.00;99.90;;;;;;4988318;28;20483;-64
2021/12/13 03:55:32;;;;;;;9.75;1.95;;;23.90;99.90;;;;;;4993422;28;20026;-65
2021/12/13 03:58:04;;;;;;;7.72;2.50;;;23.70;99.90;;;;;;4992709;28;20105;-65
2021/12/13 04:00:39;;;;;;;5.97;2.53;;;23.70;99.90;;;;;;4992317;28;20030;-65
2021/12/13 04:03:12;;;;;;;14.00;2.15;;;23.80;99.90;;;;;;4993052;28;20113;-64
2021/12/13 04:05:40;;;;;;;8.70;2.03;;;24.00;99.90;;;;;;4990622;28;20393;-65
2021/12/13 04:08:11;;;;;;;8.85;2.28;;;23.80;99.90;;;;;;4983986;28;20019;-64
2021/12/13 04:10:47;;;;;;;12.07;2.17;;;23.90;99.90;;;;;;4983293;28;20081;-64
2021/12/13 04:13:19;;;;;;;6.28;2.13;;;24.10;99.90;;;;;;4992398;28;20026;-64
2021/12/13 04:16:11;;;;;;;11.40;2.95;;;24.40;99.90;;;;;;4983901;28;20549;-65
2021/12/13 04:21:14;;;;;;;;;;;24.80;99.90;;;;;;4982480;28;20023;-65
2021/12/13 04:23:55;;;;;;;11.05;2.22;;;24.00;99.90;;;;;;4982897;28;19912;-64
2021/12/13 04:26:24;;;;;;;7.45;1.42;;;24.20;99.90;;;;;;4982156;28;20066;-64
2021/12/13 04:28:56;;;;;;;7.43;2.10;;;24.40;99.90;;;;;;4980603;28;20042;-65
2021/12/13 04:31:28;;;;;;;7.55;1.80;;;24.20;99.90;;;;;;5005214;28;20022;-66
2021/12/13 04:34:04;;;;;;;4.25;1.98;;;23.90;99.90;;;;;;4989729;28;20014;-65
2021/12/13 04:36:43;;;;;;;7.18;1.90;;;23.60;99.90;;;;;;4981504;28;20387;-66
2021/12/13 04:39:14;;;;;;;9.45;1.75;;;23.80;99.90;;;;;;4991032;28;20046;-66
2021/12/13 04:41:53;;;;;;;8.48;1.63;;;23.90;99.90;;;;;;4991552;28;20029;-66
2021/12/13 04:44:50;;;;;;;8.30;2.30;;;23.70;99.90;;;;;;4993622;28;20030;-65
2021/12/13 04:47:26;;;;;;;10.40;2.10;;;23.70;99.90;;;;;;4993961;28;20022;-64
2021/12/13 04:50:10;;;;;;;10.30;2.70;;;23.40;99.90;;;;;;4993956;28;20049;-65
2021/12/13 04:52:39;;;;;;;8.48;1.75;;;23.00;99.90;;;;;;4993718;28;20030;-63
2021/12/13 04:55:12;;;;;;;7.80;2.05;;;23.00;99.90;;;;;;4992257;28;20030;-63
2021/12/13 04:57:41;;;;;;;7.07;1.70;;;23.30;99.90;;;;;;4989689;28;20109;-65
2021/12/13 05:00:15;;;;;;;13.10;2.25;;;23.30;99.90;;;;;;4992445;28;20044;-65
2021/12/13 05:02:50;;;;;;;8.35;2.05;;;23.10;99.90;;;;;;4994595;28;20054;-64
2021/12/13 05:05:19;;;;;;;8.02;2.75;;;23.10;99.90;;;;;;4992789;28;20057;-64
2021/12/13 05:07:51;;;;;;;7.28;1.85;;;23.00;99.90;;;;;;4995480;28;20026;-64
2021/12/13 05:10:19;;;;;;;5.43;2.03;;;23.10;99.90;;;;;;4995628;28;20689;-64
2021/12/13 05:13:04;;;;;;;11.32;2.10;;;23.20;99.90;;;;;;4996946;28;20109;-65
2021/12/13 05:15:34;;;;;;;9.90;2.33;;;22.80;99.90;;;;;;4997628;28;20018;-65
2021/12/13 05:18:05;;;;;;;7.60;1.50;;;22.80;99.90;;;;;;4997542;28;20260;-65
2021/12/13 05:20:37;;;;;;;10.45;2.00;;;22.90;99.90;;;;;;4996877;28;20553;-66
2021/12/13 05:23:09;;;;;;;8.98;2.08;;;23.00;99.90;;;;;;4996762;28;20526;-66
2021/12/13 05:25:39;;;;;;;13.82;2.67;;;22.90;99.90;;;;;;4996622;28;20026;-65
2021/12/13 05:28:25;;;;;;;10.43;1.70;;;23.00;99.90;;;;;;4996775;28;20026;-66
2021/12/13 05:30:58;;;;;;;19.15;2.58;;;23.10;99.90;;;;;;4994826;28;20022;-66
2021/12/13 05:33:30;;;;;;;11.82;1.80;;;23.00;99.90;;;;;;4996525;28;20026;-66
2021/12/13 05:36:04;;;;;;;10.40;2.20;;;22.80;99.90;;;;;;4996939;28;20505;-67
2021/12/13 05:38:42;;;;;;;9.07;2.10;;;22.40;99.90;;;;;;4995211;28;20369;-66
2021/12/13 05:41:18;;;;;;;10.02;1.77;;;22.10;99.90;;;;;;4994815;28;20029;-66
2021/12/13 05:43:55;;;;;;;8.02;1.63;;;22.30;99.90;;;;;;4993407;28;20525;-65
2021/12/13 05:46:32;;;;;;;10.75;1.92;;;22.10;99.90;;;;;;4996153;28;20050;-66
2021/12/13 05:49:04;;;;;;;8.32;1.77;;;22.30;99.90;;;;;;4996621;28;20030;-65
2021/12/13 05:51:35;;;;;;;10.27;1.73;;;22.30;99.90;;;;;;4996878;28;20030;-65
2021/12/13 05:54:18;;;;;;;8.60;2.30;;;22.10;99.90;;;;;;4996709;28;20105;-65
2021/12/13 05:56:49;;;;;;;8.65;2.10;;;22.00;99.90;;;;;;4996773;28;20033;-66
2021/12/13 05:59:24;;;;;;;8.23;2.25;;;22.10;99.90;;;;;;4996812;28;20038;-66
2021/12/13 06:02:11;;;;;;;8.68;1.88;;;22.10;99.90;;;;;;4996535;28;20577;-66
2021/12/13 06:04:56;;;;;;;8.95;1.80;;;22.00;99.90;;;;;;4996413;28;20399;-66
2021/12/13 06:07:31;;;;;;;8.18;1.85;;;21.90;99.90;;;;;;4996638;28;20041;-65
2021/12/13 06:10:13;;;;;;;14.65;2.08;;;21.80;99.90;;;;;;4996644;28;20053;-66
2021/12/13 06:12:50;;;;;;;7.82;1.90;;;21.80;99.90;;;;;;4995680;28;20557;-65
2021/12/13 06:15:17;;;;;;;7.22;1.92;;;22.00;99.90;;;;;;4996277;28;20027;-64
2021/12/13 06:17:47;;;;;;;9.02;3.03;;;22.10;99.90;;;;;;4996495;28;20034;-64
2021/12/13 06:20:41;;;;;;;6.50;1.70;;;22.30;99.90;;;;;;4996541;28;20471;-66
2021/12/13 06:23:14;;;;;;;6.30;1.65;;;22.10;99.90;;;;;;5004050;28;20385;-66
2021/12/13 06:25:45;;;;;;;5.75;1.75;;;21.90;99.90;;;;;;4996267;28;20514;-66
2021/12/13 06:28:40;;;;;;;7.85;2.22;;;21.70;99.90;;;;;;4996376;28;20471;-66
2021/12/13 06:31:13;;;;;;;8.68;2.22;;;21.70;99.90;;;;;;4996411;28;20038;-66
2021/12/13 06:33:50;;;;;;;7.05;2.05;;;21.70;99.90;;;;;;4996181;28;20027;-65
2021/12/13 06:36:47;;;;;;;8.93;2.33;;;21.70;99.90;;;;;;4995863;28;20026;-65
2021/12/13 06:39:23;;;;;;;6.65;2.17;;;21.90;99.90;;;;;;4996058;28;20055;-65
2021/12/13 06:42:04;;;;;;;14.32;2.20;;;22.30;99.90;;;;;;4995998;28;20061;-65
2021/12/13 06:44:47;;;;;;;7.05;2.00;;;22.70;99.90;;;;;;4995879;28;20034;-64
2021/12/13 06:47:17;;;;;;;11.63;2.17;;;23.00;99.90;;;;;;4994861;28;20041;-66
2021/12/13 06:49:52;;;;;;;11.05;1.80;;;22.70;99.90;;;;;;4995871;28;20030;-66
2021/12/13 06:52:26;;;;;;;3.85;1.38;;;22.30;99.90;;;;;;4995975;28;20034;-67
2021/12/13 06:55:08;;;;;;;5.07;1.65;;;22.00;99.90;;;;;;4996128;28;20536;-66
2021/12/13 06:57:41;;;;;;;11.10;2.08;;;21.90;99.90;;;;;;4995846;28;20076;-65
2021/12/13 07:00:18;;;;;;;10.65;1.83;;;21.90;99.90;;;;;;4995680;28;20399;-65
2021/12/13 07:02:50;;;;;;;11.05;1.85;;;22.00;99.90;;;;;;4995083;28;20484;-66
2021/12/13 07:05:24;;;;;;;9.18;2.05;;;21.70;99.90;;;;;;4996078;28;20136;-66
2021/12/13 07:08:00;;;;;;;8.15;1.90;;;21.40;99.90;;;;;;4994965;28;20058;-66
2021/12/13 07:10:29;;;;;;;;;;;21.50;99.90;;;;;;4995444;28;20540;-65
2021/12/13 07:13:23;;;;;;;10.50;1.60;;;21.60;99.90;;;;;;4995704;28;19920;-67
2021/12/13 07:16:02;;;;;;;7.40;1.77;;;21.40;99.90;;;;;;4995240;28;20035;-66
2021/12/13 07:18:54;;;;;;;7.80;1.85;;;21.20;99.90;;;;;;4995486;28;20109;-66
2021/12/13 07:21:32;;;;;;;8.98;2.00;;;21.20;99.90;;;;;;4995525;28;20033;-66
2021/12/13 07:24:05;;;;;;;6.60;1.20;;;21.00;99.90;;;;;;4992772;28;20037;-66
2021/12/13 07:26:35;;;;;;;8.60;2.63;;;21.10;99.90;;;;;;4982074;28;20031;-65
2021/12/13 07:29:12;;;;;;;4.60;1.83;;;21.00;99.90;;;;;;4975091;28;20510;-65
2021/12/13 07:31:42;;;;;;;7.93;1.80;;;21.20;99.90;;;;;;4974297;28;20488;-65
2021/12/13 07:34:17;;;;;;;7.22;1.63;;;21.90;99.90;;;;;;4974598;28;20026;-66
2021/12/13 07:36:53;;;;;;;7.25;1.70;;;22.20;99.90;;;;;;5002310;28;20026;-65
2021/12/13 07:39:24;;;;;;;9.60;1.75;;;22.50;99.90;;;;;;5014178;28;20046;-65
2021/12/13 07:41:56;;;;;;;7.15;1.58;;;22.50;99.90;;;;;;5014623;28;20026;-65
2021/12/13 07:44:48;;;;;;;7.22;2.05;;;22.60;99.90;;;;;;4990478;28;20029;-64
2021/12/13 07:47:23;;;;;;;7.53;2.17;;;22.10;99.90;;;;;;4986768;28;20027;-65
2021/12/13 07:49:58;;;;;;;16.83;3.70;;;21.60;99.90;;;;;;4992233;28;20028;-65
2021/12/13 07:52:31;;;;;;;16.83;5.33;;;21.20;99.90;;;;;;4990507;28;20022;-64
2021/12/13 07:55:19;;;;;;;15.95;4.72;;;20.80;99.90;;;;;;4992642;28;20144;-65
2021/12/13 07:57:48;;;;;;;10.77;2.45;;;20.50;99.90;;;;;;4993258;28;20023;-64
2021/12/13 08:00:28;;;;;;;10.02;2.90;;;20.40;99.90;;;;;;4993027;28;20040;-64
2021/12/13 08:03:07;;;;;;;8.23;2.10;;;20.40;99.90;;;;;;4991681;28;20117;-64
2021/12/13 08:05:46;;;;;;;9.35;2.35;;;20.30;99.90;;;;;;4993147;28;20032;-64
2021/12/13 08:08:24;;;;;;;14.00;3.33;;;20.10;99.90;;;;;;4991446;28;20498;-65
2021/12/13 08:10:58;;;;;;;11.63;2.03;;;20.00;99.90;;;;;;4992983;28;20022;-65
2021/12/13 08:13:30;;;;;;;9.80;1.55;;;19.90;99.90;;;;;;4992938;28;20078;-64
2021/12/13 08:16:01;;;;;;;9.15;2.33;;;19.80;99.90;;;;;;4993070;28;20073;-65
2021/12/13 08:18:41;;;;;;;10.02;2.15;;;19.80;99.90;;;;;;4991956;28;20117;-63
2021/12/13 08:21:21;;;;;;;8.82;1.70;;;19.70;99.90;;;;;;4992182;28;20057;-64
2021/12/13 08:23:57;;;;;;;13.88;2.50;;;19.60;99.90;;;;;;4981983;28;20495;-65
2021/12/13 08:26:52;;;;;;;9.63;2.05;;;19.40;99.90;;;;;;4979029;28;20069;-65
2021/12/13 08:29:23;;;;;;;7.70;2.13;;;19.20;99.90;;;;;;4977750;28;20113;-64
2021/12/13 08:31:56;;;;;;;10.70;2.33;;;19.10;99.90;;;;;;4978222;28;20018;-65
2021/12/13 08:34:38;;;;;;;8.50;1.80;;;19.00;99.90;;;;;;4978702;28;20019;-65
2021/12/13 08:37:23;;;;;;;7.30;1.88;;;18.80;99.90;;;;;;4977839;28;20109;-65
2021/12/13 08:40:02;;;;;;;7.68;1.85;;;18.80;99.90;;;;;;4985169;28;20161;-64
2021/12/13 08:42:35;;;;;;;9.25;2.53;;;18.80;99.90;;;;;;4989354;28;20423;-64
2021/12/13 08:45:30;;;;;;;6.18;1.75;;;18.80;99.90;;;;;;4992872;28;20382;-64
2021/12/13 08:48:13;;;;;;;8.90;2.17;;;18.70;99.90;;;;;;4990167;28;20014;-64
2021/12/13 08:50:51;;;;;;;9.82;2.20;;;18.60;99.90;;;;;;4986452;28;20034;-63
2021/12/13 08:53:35;;;;;;;9.48;2.65;;;18.50;99.90;;;;;;4975153;28;20022;-65
2021/12/13 08:56:09;;;;;;;11.82;1.95;;;18.50;99.90;;;;;;4973113;28;20050;-64
2021/12/13 08:58:49;;;;;;;10.60;1.90;;;18.50;99.90;;;;;;4979834;28;20491;-63
2021/12/13 09:01:17;;;;;;;7.30;1.85;;;18.40;99.90;;;;;;4992087;28;20130;-63
2021/12/13 09:03:52;;;;;;;10.35;2.72;;;18.30;99.90;;;;;;4991057;28;20035;-64
2021/12/13 09:06:20;;;;;;;8.25;1.67;;;18.30;99.90;;;;;;4992731;28;20106;-64
2021/12/13 09:09:00;;;;;;;6.68;2.15;;;18.20;99.90;;;;;;4992659;28;20040;-64
2021/12/13 09:11:57;;;;;;;10.70;1.92;;;18.20;99.90;;;;;;4992873;28;20030;-64
2021/12/13 09:14:39;;;;;;;9.07;1.80;;;18.10;99.90;;;;;;4992653;28;20034;-63
2021/12/13 09:17:31;;;;;;;13.32;2.13;;;18.10;99.90;;;;;;4992514;28;20034;-63
2021/12/13 09:20:25;;;;;;;6.55;2.13;;;18.00;99.90;;;;;;4990632;28;20027;-63
2021/12/13 09:22:57;;;;;;;5.13;1.67;;;18.00;99.90;;;;;;4991182;28;20053;-64
2021/12/13 09:25:30;;;;;;;14.80;2.30;;;18.00;99.90;;;;;;4991416;28;20053;-63
2021/12/13 09:28:15;;;;;;;10.15;2.25;;;17.90;99.90;;;;;;4991267;28;20111;-63
2021/12/13 09:30:56;;;;;;;13.93;2.30;;;17.90;99.90;;;;;;4991381;28;20046;-63
2021/12/13 09:33:35;;;;;;;8.52;2.05;;;17.80;99.90;;;;;;4992511;28;20022;-63
2021/12/13 09:36:14;;;;;;;14.70;1.85;;;17.80;99.90;;;;;;4992062;28;20061;-63
2021/12/13 09:39:07;;;;;;;11.70;2.25;;;17.70;99.90;;;;;;4992347;28;20022;-63
2021/12/13 09:41:47;;;;;;;8.50;2.13;;;17.70;99.90;;;;;;4993229;28;20038;-63
2021/12/13 09:44:28;;;;;;;12.85;2.92;;;17.70;99.90;;;;;;4992252;28;20085;-64
2021/12/13 09:47:13;;;;;;;11.98;2.53;;;17.70;99.90;;;;;;4992919;28;20603;-63
2021/12/13 09:49:48;;;;;;;9.77;1.92;;;17.70;99.90;;;;;;4987937;28;20034;-64
2021/12/13 09:52:46;;;;;;;6.07;1.85;;;17.70;99.90;;;;;;4995656;28;20030;-64
2021/12/13 09:55:30;;;;;;;10.90;2.22;;;17.60;99.90;;;;;;4995875;28;20076;-64
2021/12/13 09:58:04;;;;;;;9.02;2.63;;;17.60;99.90;;;;;;4993721;28;20057;-63
2021/12/13 10:00:41;;;;;;;6.32;1.60;;;17.60;99.90;;;;;;4993781;28;20030;-64
2021/12/13 10:03:24;;;;;;;8.82;1.70;;;17.60;99.90;;;;;;4995337;28;20050;-64
2021/12/13 10:05:56;;;;;;;8.13;1.58;;;17.60;99.90;;;;;;4995384;28;20034;-64
2021/12/13 10:08:38;;;;;;;12.70;2.53;;;17.60;99.90;;;;;;4995300;28;20105;-63
2021/12/13 10:11:12;;;;;;;5.60;1.85;;;17.60;99.90;;;;;;4994479;28;20030;-63
2021/12/13 10:13:41;;;;;;;10.02;1.27;;;17.50;99.90;;;;;;4985862;28;20026;-64
2021/12/13 10:16:14;;;;;;;12.95;1.92;;;17.40;99.90;;;;;;4995882;28;20054;-64
2021/12/13 10:18:44;;;;;;;14.45;1.92;;;17.40;99.90;;;;;;4994937;28;20019;-64
2021/12/13 10:21:20;;;;;;;12.23;1.52;;;17.30;99.90;;;;;;4994790;28;20391;-64
2021/12/13 10:23:57;;;;;;;11.02;2.05;;;17.30;99.90;;;;;;4994637;28;20080;-64
2021/12/13 10:26:35;;;;;;;3.58;1.23;;;17.30;99.90;;;;;;4993111;28;20054;-64
2021/12/13 10:29:08;;;;;;;8.55;2.67;;;17.20;99.90;;;;;;4992102;28;20038;-64
2021/12/13 10:31:45;;;;;;;6.80;1.85;;;17.10;99.90;;;;;;4993926;28;20022;-64
2021/12/13 10:34:20;;;;;;;18.02;2.95;;;17.00;99.90;;;;;;5010134;28;20031;-64
2021/12/13 10:37:03;;;;;;;12.88;1.85;;;17.00;99.90;;;;;;4995078;28;20387;-64
2021/12/13 10:39:44;;;;;;;14.95;1.88;;;17.00;99.90;;;;;;4994698;28;20419;-64
2021/12/13 10:42:22;;;;;;;11.10;2.28;;;17.00;99.90;;;;;;4994658;28;20031;-63
2021/12/13 10:44:50;;;;;;;13.68;2.25;;;17.00;99.90;;;;;;4994308;28;20061;-64
2021/12/13 10:47:40;;;;;;;11.23;2.40;;;17.00;99.90;;;;;;4994928;28;20080;-63
2021/12/13 10:50:16;;;;;;;10.23;1.95;;;16.90;99.90;;;;;;4993848;28;20110;-63
2021/12/13 10:52:48;;;;;;;8.18;1.73;;;16.90;99.90;;;;;;4994534;28;20034;-64
2021/12/13 10:55:24;;;;;;;15.18;2.60;;;16.80;99.90;;;;;;4993585;28;20073;-64
2021/12/13 10:57:52;;;;;;;13.32;1.95;;;16.80;99.90;;;;;;4993889;28;20030;-64
2021/12/13 11:00:25;;;;;;;8.48;1.95;;;16.70;99.90;;;;;;4993400;28;20525;-64
2021/12/13 11:02:56;;;;;;;7.40;1.67;;;16.80;99.90;;;;;;4993260;28;20487;-63
2021/12/13 11:05:28;;;;;;;10.27;2.28;;;16.80;99.90;;;;;;4993608;28;20510;-64
2021/12/13 11:08:00;;;;;;;8.77;2.15;;;16.70;99.90;;;;;;4992753;28;20424;-63
2021/12/13 11:10:50;;;;;;;10.75;2.15;;;16.70;99.90;;;;;;4994476;28;20027;-64
2021/12/13 11:13:19;;;;;;;11.95;2.45;;;16.70;99.90;;;;;;4994456;28;20072;-63
2021/12/13 11:15:50;;;;;;;8.07;2.40;;;16.60;99.90;;;;;;4994317;28;20101;-63
2021/12/13 11:18:27;;;;;;;4.18;1.52;;;16.60;99.90;;;;;;4994458;28;20031;-64
2021/12/13 11:20:57;;;;;;;8.73;2.08;;;16.60;99.90;;;;;;4994077;28;20042;-64
2021/12/13 11:23:25;;;;;;;10.43;2.05;;;16.60;99.90;;;;;;4983182;28;20027;-64
2021/12/13 11:26:00;;;;;;;9.88;1.95;;;16.40;99.90;;;;;;4994087;28;20452;-63
2021/12/13 11:28:31;;;;;;;9.73;1.40;;;16.40;99.90;;;;;;4992831;28;20034;-63
2021/12/13 11:31:00;;;;;;;6.53;1.60;;;16.40;99.90;;;;;;4993222;28;20027;-64
2021/12/13 11:33:41;;;;;;;13.07;1.75;;;16.40;99.90;;;;;;4994167;28;20030;-64
2021/12/13 11:36:09;;;;;;;7.35;1.92;;;16.40;99.90;;;;;;4988951;28;20014;-64
2021/12/13 11:39:01;;;;;;;13.48;1.45;;;16.40;99.90;;;;;;4993884;28;20108;-63
2021/12/13 11:41:52;;;;;;;7.43;1.65;;;16.30;99.90;;;;;;4994025;28;20033;-64
2021/12/13 11:44:56;;;;;;;11.35;2.75;;;16.30;99.90;;;;;;4992972;28;20027;-63
2021/12/13 11:48:30;;;;;;;12.77;1.50;;;16.30;99.90;;;;;;4994126;28;20026;-63
2021/12/13 11:51:28;;;;;;;9.63;2.55;;;16.20;99.90;;;;;;4979033;28;20068;-63
2021/12/13 11:54:13;;;;;;;7.72;2.08;;;16.20;99.90;;;;;;4993917;28;20061;-63
2021/12/13 11:57:10;;;;;;;7.20;2.23;;;16.20;99.90;;;;;;4993938;28;20415;-64
2021/12/13 11:59:55;;;;;;;13.00;2.25;;;16.20;99.90;;;;;;4993952;28;20320;-63
2021/12/13 12:02:29;;;;;;;6.93;1.60;;;16.20;99.90;;;;;;4992546;28;20042;-64
2021/12/13 12:05:12;;;;;;;8.38;1.75;;;16.20;99.90;;;;;;4991981;28;20033;-63
2021/12/13 12:08:10;;;;;;;9.05;2.08;;;16.20;99.90;;;;;;4992706;28;20057;-63
2021/12/13 12:10:40;;;;;;;9.50;2.20;;;16.10;99.90;;;;;;4991271;28;20015;-62
2021/12/13 12:13:39;;;;;;;11.38;1.95;;;16.10;99.90;;;;;;4994053;28;20368;-62
2021/12/13 12:16:08;;;;;;;7.57;1.33;;;16.00;99.90;;;;;;4992938;28;20096;-63
2021/12/13 12:18:40;;;;;;;6.30;1.75;;;16.00;99.90;;;;;;4984903;28;20521;-63
2021/12/13 12:21:32;;;;;;;11.55;2.50;;;16.00;99.90;;;;;;4985240;28;20030;-63
2021/12/13 12:24:03;;;;;;;7.03;1.40;;;16.00;99.90;;;;;;4991938;28;20042;-63
2021/12/13 12:26:31;;;;;;;13.95;2.22;;;16.00;99.90;;;;;;4993679;28;20033;-63
2021/12/13 12:29:02;;;;;;;5.15;1.38;;;15.90;99.90;;;;;;4993733;28;20018;-62
2021/12/13 12:31:32;;;;;;;6.95;1.23;;;15.90;99.90;;;;;;4993762;28;20475;-62
2021/12/13 12:34:02;;;;;;;11.65;2.17;;;15.80;99.90;;;;;;4993739;28;20388;-62
2021/12/13 12:37:40;;;;;;;10.95;1.95;;;15.70;99.90;;;;;;4993636;28;20099;-62
2021/12/13 12:40:10;;;;;;;12.93;2.55;;;15.70;99.90;;;;;;4998089;28;20039;-63
2021/12/13 12:42:43;;;;;;;6.93;1.58;;;15.60;99.90;;;;;;4991371;28;20023;-63
2021/12/13 12:45:13;;;;;;;4.40;1.20;;;15.60;99.90;;;;;;4994393;28;20061;-63
2021/12/13 12:47:59;;;;;;;12.02;2.65;;;15.60;99.90;;;;;;5007821;28;20064;-62
2021/12/13 12:50:36;;;;;;;7.75;2.15;;;15.60;99.90;;;;;;5013649;28;20109;-63
2021/12/13 12:53:09;;;;;;;11.07;2.45;;;15.60;99.90;;;;;;4974907;28;20101;-63
2021/12/13 12:55:42;;;;;;;8.45;1.35;;;15.60;99.90;;;;;;4974552;28;20027;-63
2021/12/13 12:58:20;;;;;;;4.22;1.50;;;15.60;99.90;;;;;;4995474;28;20582;-63
2021/12/13 13:00:48;;;;;;;5.72;1.60;;;15.60;99.90;;;;;;5000456;28;20093;-63
2021/12/13 13:03:34;;;;;;;12.23;2.38;;;15.60;99.90;;;;;;4993601;28;20051;-64
2021/12/13 13:06:24;;;;;;;10.30;2.72;;;15.60;99.90;;;;;;4994156;28;20056;-63
2021/12/13 13:08:55;;;;;;;13.18;2.58;;;15.50;99.90;;;;;;4993887;28;20054;-63
2021/12/13 13:11:34;;;;;;;9.55;2.70;;;15.50;99.90;;;;;;4994027;28;20032;-64
2021/12/13 13:14:17;;;;;;;7.00;1.63;;;15.50;99.90;;;;;;4994140;28;20031;-65
2021/12/13 13:16:50;;;;;;;8.55;1.55;;;15.50;99.90;;;;;;4993903;28;20026;-64
2021/12/13 13:19:35;;;;;;;9.52;2.53;;;15.50;99.90;;;;;;4993780;28;20050;-64
2021/12/13 13:22:17;;;;;;;6.75;1.75;;;15.50;99.90;;;;;;4996539;28;20030;-63
2021/12/13 13:24:50;;;;;;;5.25;1.77;;;15.40;99.90;;;;;;4995742;28;20035;-63
2021/12/13 13:27:20;;;;;;;7.32;1.60;;;15.40;99.90;;;;;;4997183;28;20026;-64
2021/12/13 13:29:48;;;;;;;8.88;2.13;;;15.30;99.90;;;;;;4996552;28;20018;-64
2021/12/13 13:32:17;;;;;;;7.78;1.63;;;15.30;99.90;;;;;;4997572;28;20447;-63
2021/12/13 13:34:49;;;;;;;7.90;1.60;;;15.30;99.90;;;;;;4997657;28;20142;-63
2021/12/13 13:37:21;;;;;;;9.23;2.63;;;15.30;99.90;;;;;;4997596;28;20022;-64
2021/12/13 13:39:57;;;;;;;11.32;2.25;;;15.20;99.90;;;;;;4997526;28;20092;-64
2021/12/13 13:42:27;;;;;;;5.93;1.85;;;15.30;99.90;;;;;;4997352;28;20448;-64
2021/12/13 13:45:17;;;;;;;7.43;2.03;;;15.20;99.90;;;;;;4997281;28;20061;-64
2021/12/13 13:47:50;;;;;;;5.38;1.90;;;15.20;99.90;;;;;;4997347;28;20022;-64
2021/12/13 13:50:28;;;;;;;7.68;2.15;;;15.20;99.90;;;;;;4997100;28;20426;-63